Forecast

Icon not available

Occasional rain, worsening.
Computed at 23:56 BST:



Current


  • Indoors 19.2 °C
  • Outside 13.6 °C
  • Feels 12.2 °C
  • Humidity 93%
  • Pressure 999.6 hPa
  • Hour trend -1.3 hPa
  • Wind 3.1 mph
  • Gust 5.1 mph
  • Direction E
  • Hourly rain 0.0 mm
  • Daily rain 0.0 mm


Graphs




Links


Last 28 days view

24 hours ending Temperature Wind Rainfall
day max night min dir average max gust
20-10-2017 - 00:41 BST 13.4 °C ESE 5 mph 16 mph 0.0 mm
19-10-2017 - 21:59 BST 17.4 °C 13.5 °C E 1 mph 11 mph 0.0 mm
18-10-2017 - 21:59 BST 14.9 °C 11.6 °C W 1 mph 6 mph 2.1 mm
17-10-2017 - 22:00 BST 16.9 °C 10.4 °C SE 2 mph 13 mph 0.0 mm
16-10-2017 - 21:58 BST 23.1 °C 13.1 °C SE 2 mph 14 mph 0.0 mm
15-10-2017 - 21:58 BST 21.4 °C 10.1 °C SE 2 mph 11 mph 0.0 mm
14-10-2017 - 21:58 BST 21.9 °C 14.7 °C ESE 2 mph 12 mph 0.0 mm
13-10-2017 - 21:58 BST 19.2 °C 10.4 °C SE 3 mph 15 mph 0.0 mm
12-10-2017 - 21:58 BST 18.9 °C 9.7 °C SE 2 mph 11 mph 0.0 mm
11-10-2017 - 21:58 BST 16.9 °C 14.0 °C SE 4 mph 16 mph 0.0 mm
10-10-2017 - 21:58 BST 17.3 °C 10.5 °C SE 2 mph 11 mph 0.0 mm
09-10-2017 - 21:58 BST 17.3 °C 7.8 °C ENE 1 mph 8 mph 0.0 mm
08-10-2017 - 21:58 BST 22.5 °C 8.8 °C NW 0 mph 6 mph 0.0 mm
07-10-2017 - 21:58 BST 16.8 °C 9.7 °C SE 2 mph 11 mph 0.0 mm
06-10-2017 - 21:58 BST 17.9 °C 7.6 °C W 1 mph 14 mph 0.0 mm
05-10-2017 - 21:58 BST 19.1 °C 12.1 °C SSE 3 mph 17 mph 0.3 mm
04-10-2017 - 21:58 BST 15.6 °C 8.6 °C ESE 2 mph 11 mph 0.0 mm
03-10-2017 - 21:58 BST 20.5 °C 8.3 °C ENE 1 mph 6 mph 0.0 mm
02-10-2017 - 21:58 BST 21.2 °C 13.3 °C SE 3 mph 15 mph 0.0 mm
01-10-2017 - 21:58 BST 18.1 °C 13.3 °C E 3 mph 13 mph 0.0 mm
30-09-2017 - 21:58 BST 18.9 °C 10.5 °C ESE 1 mph 9 mph 0.0 mm
29-09-2017 - 21:58 BST 20.5 °C 13.1 °C ESE 2 mph 12 mph 0.0 mm
28-09-2017 - 21:56 BST 22.0 °C 15.0 °C ESE 2 mph 9 mph 11.1 mm
27-09-2017 - 22:00 BST 20.6 °C 11.8 °C NE 1 mph 7 mph 0.0 mm
26-09-2017 - 22:00 BST 22.0 °C 12.9 °C WNW 1 mph 5 mph 0.0 mm
25-09-2017 - 21:58 BST 18.0 °C 14.8 °C WNW 1 mph 8 mph 0.3 mm
24-09-2017 - 21:57 BST 22.2 °C 13.2 °C NNE 1 mph 8 mph 0.0 mm
23-09-2017 - 21:57 BST 19.0 °C 10.5 °C ENE 1 mph 7 mph 0.0 mm
22-09-2017 - 21:57 BST 21.2 °C 8.0 °C ESE 1 mph 7 mph 0.0 mm
21-09-2017 - 21:57 BST 19.6 °C 12.1 °C ESE 2 mph 11 mph 0.0 mm
20-09-2017 - 21:57 BST 19.0 °C 9.7 °C ESE 2 mph 8 mph 0.0 mm
19-09-2017 - 21:57 BST 16.2 °C 8.3 °C SSW 1 mph 6 mph 0.3 mm
18-09-2017 - 21:57 BST 18.9 °C 9.4 °C WSW 1 mph 10 mph 0.3 mm
17-09-2017 - 21:57 BST 18.6 °C 7.7 °C WSW 1 mph 11 mph 1.2 mm
16-09-2017 - 21:57 BST 16.3 °C 6.9 °C WSW 1 mph 7 mph 0.0 mm
15-09-2017 - 21:57 BST 21.1 °C 6.0 °C WSW 1 mph 10 mph 0.0 mm
14-09-2017 - 21:57 BST 18.5 °C 7.4 °C S 1 mph 7 mph 0.0 mm
13-09-2017 - 21:57 BST 20.6 °C 12.7 °C SE 4 mph 17 mph 0.6 mm
12-09-2017 - 21:57 BST 21.0 °C 9.4 °C ESE 2 mph 14 mph 0.0 mm
11-09-2017 - 21:57 BST 19.6 °C 11.1 °C SE 4 mph 18 mph 0.6 mm
10-09-2017 - 21:57 BST 17.7 °C 8.7 °C SE 3 mph 15 mph 0.9 mm
09-09-2017 - 21:57 BST 19.9 °C 9.5 °C ESE 1 mph 11 mph 0.9 mm
08-09-2017 - 21:57 BST 17.4 °C 14.1 °C ESE 3 mph 12 mph 0.9 mm
07-09-2017 - 21:57 BST 20.6 °C 11.8 °C ESE 2 mph 11 mph 0.0 mm
06-09-2017 - 21:59 BST 19.2 °C 10.9 °C SSE 1 mph 11 mph 0.0 mm
05-09-2017 - 21:57 BST 20.4 °C 16.2 °C ESE 3 mph 11 mph 0.3 mm
04-09-2017 - 21:57 BST 21.3 °C 13.5 °C E 2 mph 9 mph 0.3 mm
03-09-2017 - 21:56 BST 19.7 °C 10.6 °C E 1 mph 11 mph 0.0 mm
02-09-2017 - 21:56 BST 24.9 °C 10.0 °C NE 1 mph 8 mph 6.6 mm
01-09-2017 - 21:56 BST 24.0 °C 7.9 °C WSW 1 mph 8 mph 0.0 mm
31-08-2017 - 21:56 BST 21.7 °C 8.6 °C E 1 mph 10 mph 0.6 mm
30-08-2017 - 21:56 BST 13.8 °C 11.9 °C WSW 2 mph 10 mph 1.5 mm